Time;durP1;ratioP1;P1;durP2;ratioP2;P2;SDS_P1;SDS_P2;PMS_P1;PMS_P2;Temp;Humidity;BMP_temperature;BMP_pressure;BME280_temperature;BME280_humidity;BME280_pressure;Samples;Min_cycle;Max_cycle;Signal;HPM_P1;HPM_P2
2023/07/08 00:02:12;;;;;;;0.32;0.32;;;14.10;99.90;;;;;;5083294;28;20052;-70
2023/07/08 00:04:39;;;;;;;0.95;0.77;;;14.00;1.00;;;;;;5083263;28;20051;-70
2023/07/08 00:07:10;;;;;;;0.40;0.40;;;13.90;18.10;;;;;;5083185;28;20100;-70
2023/07/08 00:09:35;;;;;;;5.20;1.75;;;13.80;67.70;;;;;;5083536;28;20072;-70
2023/07/08 00:12:01;;;;;;;1.70;1.17;;;13.70;99.90;;;;;;5082833;28;20040;-70
2023/07/08 00:14:27;;;;;;;0.25;0.25;;;13.70;99.90;;;;;;5083233;28;20073;-70
2023/07/08 00:16:53;;;;;;;0.82;0.50;;;13.70;99.90;;;;;;5083457;28;20048;-71
2023/07/08 00:19:19;;;;;;;0.50;0.50;;;13.60;99.90;;;;;;5082649;28;20545;-70
2023/07/08 00:21:47;;;;;;;1.42;1.20;;;13.60;99.90;;;;;;5082502;28;20098;-70
2023/07/08 00:24:13;;;;;;;5.22;1.58;;;13.50;99.90;;;;;;5083047;28;20047;-70
2023/07/08 00:26:39;;;;;;;0.30;0.15;;;13.40;99.90;;;;;;5082592;28;20048;-70
2023/07/08 00:29:17;;;;;;;0.00;0.00;;;13.40;1.00;;;;;;5082145;28;20477;-70
2023/07/08 00:31:43;;;;;;;0.43;0.35;;;13.40;1.00;;;;;;5082004;28;20044;-70
2023/07/08 00:34:08;;;;;;;0.05;0.05;;;13.30;1.00;;;;;;5082401;28;20051;-70
2023/07/08 00:36:34;;;;;;;0.52;0.47;;;13.20;1.00;;;;;;5082452;28;20040;-70
2023/07/08 00:39:00;;;;;;;1.63;1.30;;;13.20;1.00;;;;;;5082161;28;20048;-70
2023/07/08 00:41:28;;;;;;;1.27;0.80;;;13.10;1.00;;;;;;5082127;28;20059;-70
2023/07/08 00:43:57;;;;;;;0.20;0.20;;;13.10;84.90;;;;;;5082151;28;21169;-70
2023/07/08 00:46:31;;;;;;;0.20;0.20;;;13.00;91.30;;;;;;5082526;28;20127;-70
2023/07/08 00:49:25;;;;;;;0.43;0.32;;;12.90;99.90;;;;;;5081542;28;20052;-70
2023/07/08 00:51:50;;;;;;;0.25;0.25;;;12.90;99.90;;;;;;5078150;28;20114;-70
2023/07/08 00:54:18;;;;;;;4.97;2.65;;;12.90;99.90;;;;;;5082469;28;20578;-70
2023/07/08 00:56:53;;;;;;;3.45;1.33;;;12.90;99.90;;;;;;5084160;28;20097;-70
2023/07/08 00:59:23;;;;;;;1.23;1.08;;;12.80;99.90;;;;;;5086308;28;20455;-69
2023/07/08 01:01:49;;;;;;;2.10;1.65;;;12.80;99.90;;;;;;5085889;28;20127;-70
2023/07/08 01:04:54;;;;;;;0.55;0.52;;;12.80;99.90;;;;;;5086406;28;20032;-70
2023/07/08 01:07:23;;;;;;;2.28;1.65;;;12.80;99.90;;;;;;5086141;28;20546;-69
2023/07/08 01:09:54;;;;;;;0.03;0.03;;;12.90;99.90;;;;;;5086012;28;20403;-71
2023/07/08 01:12:25;;;;;;;0.10;0.10;;;12.90;99.90;;;;;;5086019;28;20058;-71
2023/07/08 01:14:53;;;;;;;0.20;0.20;;;13.20;99.90;;;;;;5085910;28;20135;-70
2023/07/08 01:17:21;;;;;;;1.88;0.77;;;13.00;99.90;;;;;;5086421;28;20054;-71
2023/07/08 01:19:48;;;;;;;0.60;0.60;;;13.00;99.90;;;;;;5085588;28;20040;-71
2023/07/08 01:22:13;;;;;;;0.52;0.35;;;13.00;99.90;;;;;;5085649;28;20052;-71
2023/07/08 01:24:42;;;;;;;0.55;0.55;;;13.00;99.90;;;;;;5085904;28;20050;-71
2023/07/08 01:27:12;;;;;;;0.22;0.22;;;13.00;99.90;;;;;;5085771;28;20059;-71
2023/07/08 01:29:38;;;;;;;2.10;0.90;;;13.00;99.90;;;;;;5085797;28;20195;-71
2023/07/08 01:32:05;;;;;;;0.10;0.10;;;13.00;99.90;;;;;;5085967;28;20590;-71
2023/07/08 01:34:36;;;;;;;0.10;0.10;;;13.10;99.90;;;;;;5085446;28;20567;-71
2023/07/08 01:37:05;;;;;;;0.00;0.00;;;13.00;99.90;;;;;;5085399;28;20040;-71
2023/07/08 01:39:32;;;;;;;0.38;0.38;;;13.10;99.90;;;;;;5067438;28;20063;-71
2023/07/08 01:41:58;;;;;;;0.22;0.22;;;13.10;99.90;;;;;;5085550;28;20063;-71
2023/07/08 01:44:35;;;;;;;1.08;0.20;;;13.00;99.90;;;;;;5085873;28;20498;-71
2023/07/08 01:47:29;;;;;;;1.17;1.08;;;12.90;99.90;;;;;;5085666;28;20452;-71
2023/07/08 01:49:55;;;;;;;0.55;0.55;;;12.90;99.90;;;;;;5069432;28;20143;-71
2023/07/08 01:52:20;;;;;;;0.75;0.65;;;12.80;99.90;;;;;;5085342;28;20128;-71
2023/07/08 01:54:55;;;;;;;0.30;0.20;;;12.70;99.90;;;;;;5085370;28;20040;-71
2023/07/08 01:57:20;;;;;;;0.10;0.10;;;12.60;99.90;;;;;;5084986;28;20384;-71
2023/07/08 01:59:47;;;;;;;0.32;0.32;;;12.60;99.90;;;;;;5084947;28;20055;-71
2023/07/08 02:02:13;;;;;;;0.75;0.35;;;12.60;99.90;;;;;;5085582;28;20048;-71
2023/07/08 02:04:38;;;;;;;0.22;0.20;;;12.70;99.90;;;;;;5085414;28;20406;-71
2023/07/08 02:07:04;;;;;;;0.13;0.13;;;12.70;99.90;;;;;;5084752;28;20087;-71
2023/07/08 02:09:30;;;;;;;0.40;0.32;;;12.70;99.90;;;;;;5085113;28;20046;-71
2023/07/08 02:11:56;;;;;;;0.45;0.30;;;12.80;99.90;;;;;;5085306;28;20052;-71
2023/07/08 02:14:22;;;;;;;0.38;0.32;;;12.90;99.90;;;;;;5084837;28;20040;-71
2023/07/08 02:16:47;;;;;;;1.75;1.27;;;12.70;99.90;;;;;;5084934;28;20048;-71
2023/07/08 02:19:13;;;;;;;1.38;0.85;;;12.80;99.90;;;;;;5084779;28;21168;-71
2023/07/08 02:21:39;;;;;;;1.15;0.73;;;12.70;99.90;;;;;;5084613;28;20422;-71
2023/07/08 02:24:06;;;;;;;0.35;0.35;;;12.70;99.90;;;;;;5084733;28;20371;-70
2023/07/08 02:26:32;;;;;;;1.25;0.95;;;12.70;99.90;;;;;;5084725;28;20040;-70
2023/07/08 02:28:58;;;;;;;0.45;0.43;;;12.70;99.90;;;;;;5084286;28;20048;-71
2023/07/08 02:31:24;;;;;;;0.93;0.75;;;12.70;99.90;;;;;;5084526;28;21029;-71
2023/07/08 02:33:51;;;;;;;1.77;1.25;;;12.60;99.90;;;;;;5084804;28;20047;-71
2023/07/08 02:36:16;;;;;;;0.10;0.10;;;12.70;99.90;;;;;;5084741;28;20036;-71
2023/07/08 02:38:42;;;;;;;0.13;0.13;;;12.70;99.90;;;;;;5084293;28;20040;-71
2023/07/08 02:41:07;;;;;;;0.65;0.65;;;12.70;99.90;;;;;;5084191;28;20463;-71
2023/07/08 02:43:33;;;;;;;1.08;0.52;;;12.60;99.90;;;;;;5084059;28;20070;-70
2023/07/08 02:45:59;;;;;;;0.50;0.38;;;12.60;99.90;;;;;;5084224;28;20517;-72
2023/07/08 02:48:24;;;;;;;0.63;0.43;;;12.50;99.90;;;;;;5083887;28;20066;-71
2023/07/08 02:50:50;;;;;;;0.25;0.25;;;12.60;99.90;;;;;;5084057;28;20097;-71
2023/07/08 02:53:16;;;;;;;1.70;1.33;;;12.60;99.90;;;;;;5084274;28;20410;-71
2023/07/08 02:55:42;;;;;;;0.22;0.15;;;12.60;99.90;;;;;;5083897;28;20043;-71
2023/07/08 02:58:09;;;;;;;2.10;0.10;;;12.60;99.90;;;;;;5084017;28;20405;-71
2023/07/08 03:00:37;;;;;;;0.10;0.10;;;12.60;99.90;;;;;;5084023;28;20036;-71
2023/07/08 03:03:03;;;;;;;0.57;0.32;;;12.50;99.90;;;;;;5083939;28;20050;-71
2023/07/08 03:05:30;;;;;;;0.32;0.22;;;12.60;99.90;;;;;;5084023;28;20047;-70
2023/07/08 03:07:56;;;;;;;0.17;0.17;;;12.50;99.90;;;;;;5083709;28;20106;-71
2023/07/08 03:10:22;;;;;;;1.23;0.57;;;12.50;99.90;;;;;;5084021;28;20506;-75
2023/07/08 03:12:47;;;;;;;0.00;0.00;;;12.50;99.90;;;;;;5083815;28;20044;-72
2023/07/08 03:15:13;;;;;;;0.52;0.52;;;12.50;99.90;;;;;;5083828;28;20082;-71
2023/07/08 03:17:39;;;;;;;0.28;0.28;;;12.40;99.90;;;;;;5084025;28;20633;-71
2023/07/08 03:20:06;;;;;;;1.17;0.95;;;12.40;99.90;;;;;;5082561;28;20611;-71
2023/07/08 03:22:32;;;;;;;1.88;1.23;;;12.30;99.90;;;;;;5083609;28;20040;-71
2023/07/08 03:24:57;;;;;;;1.25;0.85;;;12.40;99.90;;;;;;5083630;28;20050;-71
2023/07/08 03:27:23;;;;;;;0.25;0.25;;;12.40;99.90;;;;;;5083318;28;20036;-71
2023/07/08 03:29:48;;;;;;;0.38;0.38;;;12.40;99.90;;;;;;5083477;28;20035;-70
2023/07/08 03:32:14;;;;;;;0.50;0.50;;;12.40;99.90;;;;;;5083802;28;20040;-71
2023/07/08 03:34:40;;;;;;;0.80;0.55;;;12.50;99.90;;;;;;5083779;28;20086;-71
2023/07/08 03:37:06;;;;;;;1.40;0.52;;;12.50;99.90;;;;;;5083429;28;20456;-71
2023/07/08 03:39:31;;;;;;;0.40;0.35;;;12.50;99.90;;;;;;5082861;28;20044;-71
2023/07/08 03:41:57;;;;;;;0.50;0.50;;;12.50;99.90;;;;;;5083224;28;20067;-71
2023/07/08 03:44:23;;;;;;;0.85;0.50;;;12.50;99.90;;;;;;5083582;28;20522;-71
2023/07/08 03:46:49;;;;;;;0.13;0.13;;;12.60;99.90;;;;;;5083084;28;20048;-71
2023/07/08 03:49:21;;;;;;;0.20;0.20;;;12.60;99.90;;;;;;5082878;28;20063;-71
2023/07/08 03:51:48;;;;;;;0.45;0.32;;;12.70;99.90;;;;;;5083454;28;20105;-71
2023/07/08 03:54:14;;;;;;;0.00;0.00;;;12.70;99.90;;;;;;5083191;28;20504;-71
2023/07/08 03:56:40;;;;;;;0.28;0.28;;;12.80;99.90;;;;;;5083700;28;20051;-72
2023/07/08 03:59:06;;;;;;;0.63;0.63;;;12.80;99.90;;;;;;5082776;28;20040;-71
2023/07/08 04:01:31;;;;;;;1.98;0.75;;;12.90;99.90;;;;;;5083282;28;20051;-71
2023/07/08 04:03:58;;;;;;;0.30;0.30;;;12.70;99.90;;;;;;5082940;28;20036;-71
2023/07/08 04:06:25;;;;;;;0.63;0.47;;;12.90;99.90;;;;;;5083011;28;20571;-71
2023/07/08 04:08:51;;;;;;;2.88;0.88;;;12.90;99.90;;;;;;5082370;28;20043;-71
2023/07/08 04:11:20;;;;;;;0.32;0.32;;;13.00;99.90;;;;;;5083457;28;20048;-71
2023/07/08 04:13:45;;;;;;;0.10;0.10;;;13.10;99.90;;;;;;5083034;28;20129;-71
2023/07/08 04:16:27;;;;;;;1.02;0.77;;;13.10;99.90;;;;;;5082768;28;20526;-71
2023/07/08 04:18:54;;;;;;;0.28;0.28;;;13.20;99.90;;;;;;5082250;28;20052;-71
2023/07/08 04:21:20;;;;;;;1.17;0.88;;;13.30;99.90;;;;;;5082215;28;20604;-71
2023/07/08 04:23:46;;;;;;;0.95;0.50;;;13.40;99.90;;;;;;5081775;28;20161;-71
2023/07/08 04:26:12;;;;;;;1.17;0.98;;;13.50;99.90;;;;;;5082573;28;20075;-71
2023/07/08 04:28:37;;;;;;;1.00;0.40;;;13.60;99.90;;;;;;5081934;28;20040;-71
2023/07/08 04:31:04;;;;;;;0.32;0.30;;;13.70;99.90;;;;;;5084223;28;20801;-71
2023/07/08 04:33:30;;;;;;;1.08;0.82;;;13.80;99.90;;;;;;5086251;28;20052;-71
2023/07/08 04:35:56;;;;;;;1.27;0.68;;;13.90;72.70;;;;;;5085894;28;20431;-71
2023/07/08 04:38:24;;;;;;;4.28;1.38;;;14.10;42.70;;;;;;5086031;28;20066;-71
2023/07/08 04:40:51;;;;;;;1.42;0.55;;;14.30;1.00;;;;;;5085849;28;20052;-71
2023/07/08 04:43:18;;;;;;;0.98;0.65;;;14.40;1.00;;;;;;5065616;28;20174;-71
2023/07/08 04:45:52;;;;;;;0.10;0.10;;;14.40;99.90;;;;;;5065945;28;20048;-71
2023/07/08 04:48:21;;;;;;;0.70;0.70;;;14.60;99.90;;;;;;5075966;28;20209;-71
2023/07/08 04:50:49;;;;;;;0.20;0.10;;;14.90;1.00;;;;;;5085235;28;20498;-71
2023/07/08 04:53:15;;;;;;;0.15;0.15;;;15.30;1.00;;;;;;5085477;28;20052;-71
2023/07/08 04:55:51;;;;;;;1.08;0.98;;;15.80;99.90;;;;;;5085631;28;20127;-71
2023/07/08 04:58:16;;;;;;;0.52;0.43;;;16.50;99.90;;;;;;5085935;28;20040;-71
2023/07/08 05:00:42;;;;;;;1.30;0.85;;;17.10;99.90;;;;;;5085745;28;20082;-71
2023/07/08 05:03:08;;;;;;;0.63;0.52;;;17.60;1.00;;;;;;5085373;28;20119;-71
2023/07/08 05:05:33;;;;;;;0.30;0.30;;;17.90;99.90;;;;;;5085692;28;20486;-71
2023/07/08 05:07:59;;;;;;;1.30;0.38;;;18.40;56.00;;;;;;5085623;28;20040;-71
2023/07/08 05:10:25;;;;;;;0.10;0.10;;;18.70;1.00;;;;;;5085980;28;20310;-71
2023/07/08 05:12:51;;;;;;;0.00;0.00;;;19.00;99.90;;;;;;5086051;28;20044;-71
2023/07/08 05:15:16;;;;;;;0.45;0.35;;;19.00;99.90;;;;;;5085551;28;20122;-71
2023/07/08 05:17:43;;;;;;;0.17;0.10;;;19.40;99.90;;;;;;5085256;28;20490;-71
2023/07/08 05:20:12;;;;;;;0.00;0.00;;;19.40;99.90;;;;;;5085449;28;20044;-71
2023/07/08 05:22:38;;;;;;;0.98;0.68;;;19.60;99.90;;;;;;5085035;28;20169;-71
2023/07/08 05:25:05;;;;;;;0.05;0.05;;;19.70;99.90;;;;;;5084923;28;20052;-71
2023/07/08 05:27:33;;;;;;;0.35;0.30;;;20.00;99.90;;;;;;5085096;28;20090;-71
2023/07/08 05:30:00;;;;;;;0.45;0.30;;;20.10;99.90;;;;;;5084949;28;20096;-71
2023/07/08 05:32:26;;;;;;;1.77;0.70;;;20.50;99.90;;;;;;5085097;28;20164;-71
2023/07/08 05:34:52;;;;;;;0.10;0.10;;;20.40;99.90;;;;;;5085161;28;20371;-71
2023/07/08 05:37:21;;;;;;;2.35;1.02;;;20.50;99.90;;;;;;5085032;28;20169;-71
2023/07/08 05:39:47;;;;;;;0.38;0.30;;;20.80;99.90;;;;;;5084715;28;20439;-71
2023/07/08 05:42:12;;;;;;;0.10;0.10;;;21.00;99.90;;;;;;5083695;28;20181;-71
2023/07/08 05:44:38;;;;;;;12.85;1.17;;;21.10;99.90;;;;;;5084641;28;20040;-71
2023/07/08 05:47:04;;;;;;;1.50;1.13;;;21.50;99.90;;;;;;5084907;28;20051;-71
2023/07/08 05:49:30;;;;;;;0.00;0.00;;;21.40;88.70;;;;;;5084397;28;20040;-71
2023/07/08 05:51:55;;;;;;;0.20;0.20;;;21.70;94.90;;;;;;5084528;28;20055;-71
2023/07/08 05:54:21;;;;;;;1.08;0.90;;;21.90;69.20;;;;;;5084249;28;20050;-71
2023/07/08 05:56:46;;;;;;;0.63;0.40;;;22.30;93.80;;;;;;5084724;28;20047;-71
2023/07/08 05:59:12;;;;;;;0.40;0.40;;;22.40;44.60;;;;;;5077383;28;20165;-71
2023/07/08 06:01:38;;;;;;;0.00;0.00;;;22.40;10.40;;;;;;5076498;28;20115;-71
2023/07/08 06:04:03;;;;;;;0.20;0.20;;;22.00;1.00;;;;;;5084701;28;20115;-71
2023/07/08 06:06:30;;;;;;;1.75;0.45;;;22.40;1.00;;;;;;5084427;28;20040;-71
2023/07/08 06:08:55;;;;;;;0.30;0.30;;;22.60;1.00;;;;;;5084741;28;20506;-71
2023/07/08 06:11:24;;;;;;;0.10;0.10;;;22.80;1.00;;;;;;5084150;28;20040;-71
2023/07/08 06:13:50;;;;;;;0.90;0.25;;;23.00;1.00;;;;;;5082697;28;20048;-71
2023/07/08 06:16:15;;;;;;;1.75;1.02;;;22.70;1.00;;;;;;5084174;28;20040;-71
2023/07/08 06:18:41;;;;;;;0.10;0.10;;;22.80;1.00;;;;;;5083816;28;20637;-71
2023/07/08 06:21:06;;;;;;;0.45;0.32;;;23.20;1.00;;;;;;5083980;28;20040;-71
2023/07/08 06:23:32;;;;;;;0.32;0.32;;;23.20;1.00;;;;;;5083693;28;20128;-71
2023/07/08 06:25:58;;;;;;;2.72;1.40;;;23.50;1.00;;;;;;5083732;28;20494;-71
2023/07/08 06:28:23;;;;;;;0.32;0.28;;;23.40;1.00;;;;;;5083816;28;20145;-71
2023/07/08 06:30:50;;;;;;;0.57;0.47;;;23.50;1.00;;;;;;5083528;28;20479;-71
2023/07/08 06:33:15;;;;;;;0.00;0.00;;;23.70;1.00;;;;;;5083492;28;20486;-71
2023/07/08 06:35:42;;;;;;;0.35;0.25;;;23.60;1.00;;;;;;5083776;28;20043;-71
2023/07/08 06:38:08;;;;;;;0.75;0.30;;;24.10;1.00;;;;;;5077530;28;20125;-71
2023/07/08 06:40:34;;;;;;;1.67;1.33;;;24.50;1.00;;;;;;5072454;28;20471;-71
2023/07/08 06:42:59;;;;;;;0.45;0.40;;;24.70;1.00;;;;;;5071438;28;20527;-71
2023/07/08 06:45:25;;;;;;;0.50;0.43;;;24.80;1.00;;;;;;5068909;28;20075;-71
2023/07/08 06:47:51;;;;;;;0.73;0.50;;;24.70;1.00;;;;;;5071594;28;20506;-71
2023/07/08 06:50:16;;;;;;;0.28;0.28;;;24.70;1.00;;;;;;5068836;28;20068;-71
2023/07/08 06:52:42;;;;;;;0.38;0.25;;;24.90;1.00;;;;;;5078186;28;20059;-71
2023/07/08 06:55:10;;;;;;;0.40;0.40;;;25.00;1.00;;;;;;5080251;28;20409;-71
2023/07/08 06:57:38;;;;;;;0.85;0.68;;;25.40;1.00;;;;;;5080864;28;20148;-71
2023/07/08 07:00:08;;;;;;;0.10;0.10;;;25.10;1.00;;;;;;5080635;28;20040;-70
2023/07/08 07:02:34;;;;;;;0.22;0.20;;;25.80;1.00;;;;;;5080170;28;20506;-70
2023/07/08 07:05:00;;;;;;;0.47;0.30;;;26.00;1.00;;;;;;5081065;28;20051;-70
2023/07/08 07:07:26;;;;;;;1.35;0.63;;;26.30;1.00;;;;;;5080702;28;20109;-72
2023/07/08 07:09:54;;;;;;;2.13;0.75;;;26.70;1.00;;;;;;5080829;28;20559;-72
2023/07/08 07:12:20;;;;;;;1.13;0.65;;;27.10;99.90;;;;;;5072359;28;20040;-72
2023/07/08 07:14:46;;;;;;;0.35;0.17;;;26.80;99.90;;;;;;5074539;28;20040;-72
2023/07/08 07:17:11;;;;;;;0.38;0.25;;;27.40;99.90;;;;;;5080908;28;20039;-71
2023/07/08 07:19:37;;;;;;;0.80;0.65;;;27.50;99.90;;;;;;5080428;28;20089;-71
2023/07/08 07:22:03;;;;;;;1.27;0.70;;;27.60;99.90;;;;;;5080804;28;20378;-72
2023/07/08 07:24:29;;;;;;;0.30;0.30;;;28.00;99.90;;;;;;5080490;28;20032;-72
2023/07/08 07:26:55;;;;;;;0.80;0.47;;;27.40;99.90;;;;;;5080883;28;20044;-72
2023/07/08 07:29:22;;;;;;;0.00;0.00;;;27.70;99.90;;;;;;5079907;28;20036;-72
2023/07/08 07:31:48;;;;;;;0.30;0.30;;;27.30;99.90;;;;;;5077947;28;20044;-72
2023/07/08 07:34:14;;;;;;;0.30;0.30;;;26.90;99.90;;;;;;5072879;28;20051;-72
2023/07/08 07:36:40;;;;;;;1.23;0.55;;;27.10;99.90;;;;;;5071905;28;20503;-72
2023/07/08 07:39:05;;;;;;;0.52;0.50;;;27.60;99.90;;;;;;5070922;28;20048;-72
2023/07/08 07:41:31;;;;;;;0.30;0.30;;;27.10;99.90;;;;;;5072884;28;20049;-72
2023/07/08 07:43:57;;;;;;;0.88;0.47;;;26.80;99.90;;;;;;5074322;28;20528;-72
2023/07/08 07:46:22;;;;;;;0.03;0.03;;;26.40;99.90;;;;;;5064504;28;20040;-72
2023/07/08 07:48:48;;;;;;;0.08;0.08;;;26.70;99.90;;;;;;5063632;28;20052;-71
2023/07/08 07:51:14;;;;;;;0.30;0.20;;;27.00;99.90;;;;;;5083568;28;20044;-71
2023/07/08 07:53:39;;;;;;;0.73;0.50;;;27.30;99.90;;;;;;5084205;28;20490;-72
2023/07/08 07:56:06;;;;;;;0.10;0.10;;;27.90;99.90;;;;;;5084102;28;20084;-72
2023/07/08 07:58:32;;;;;;;0.10;0.10;;;28.10;99.90;;;;;;5084762;28;20047;-72
2023/07/08 08:00:58;;;;;;;0.32;0.30;;;27.80;99.90;;;;;;5084782;28;20474;-72
2023/07/08 08:03:23;;;;;;;1.35;1.10;;;28.60;99.90;;;;;;5084521;28;20047;-70
2023/07/08 08:05:49;;;;;;;0.75;0.73;;;29.50;99.90;;;;;;5079901;28;20040;-70
2023/07/08 08:08:15;;;;;;;0.35;0.25;;;29.40;99.90;;;;;;5070339;28;20196;-70
2023/07/08 08:10:43;;;;;;;0.30;0.30;;;29.50;99.90;;;;;;5070977;28;20052;-70
2023/07/08 08:13:09;;;;;;;0.75;0.68;;;29.30;99.90;;;;;;5072880;28;20518;-71
2023/07/08 08:15:35;;;;;;;1.40;1.15;;;29.20;99.90;;;;;;5073634;28;21035;-71
2023/07/08 08:18:01;;;;;;;0.00;0.00;;;29.10;99.90;;;;;;5071927;28;20051;-70
2023/07/08 08:20:28;;;;;;;0.47;0.20;;;29.30;99.90;;;;;;5074072;28;20112;-72
2023/07/08 08:22:54;;;;;;;0.25;0.15;;;29.60;99.90;;;;;;5064439;28;20079;-73
2023/07/08 08:25:21;;;;;;;0.57;0.50;;;30.70;99.90;;;;;;5075587;28;20048;-72
2023/07/08 08:27:47;;;;;;;0.40;0.40;;;30.80;99.90;;;;;;5070169;28;20067;-72
2023/07/08 08:30:13;;;;;;;0.75;0.65;;;30.40;99.90;;;;;;5082869;28;20094;-72
2023/07/08 08:32:39;;;;;;;0.13;0.10;;;30.30;99.90;;;;;;5083051;28;20489;-72
2023/07/08 08:35:05;;;;;;;1.40;0.80;;;31.00;99.90;;;;;;5082554;28;20051;-72
2023/07/08 08:37:30;;;;;;;0.00;0.00;;;31.10;99.90;;;;;;5082586;28;20048;-72
2023/07/08 08:39:56;;;;;;;0.98;0.55;;;31.40;99.90;;;;;;5082535;28;20547;-73
2023/07/08 08:42:34;;;;;;;7.50;1.48;;;31.50;99.90;;;;;;5083462;28;20059;-72
2023/07/08 08:45:03;;;;;;;0.35;0.35;;;31.50;99.90;;;;;;5082604;28;20048;-73
2023/07/08 08:47:40;;;;;;;0.45;0.38;;;31.10;99.90;;;;;;5063992;28;20566;-73
2023/07/08 08:50:09;;;;;;;1.75;0.95;;;30.80;97.40;;;;;;5082632;28;20444;-73
2023/07/08 08:52:37;;;;;;;0.47;0.22;;;31.60;99.90;;;;;;5079535;28;20044;-72
2023/07/08 08:55:11;;;;;;;0.13;0.13;;;31.30;97.80;;;;;;5071168;28;20490;-72
2023/07/08 08:58:05;;;;;;;0.17;0.17;;;31.50;99.90;;;;;;5068270;28;20044;-72
2023/07/08 09:00:54;;;;;;;0.38;0.30;;;31.70;95.10;;;;;;5067751;28;20043;-72
2023/07/08 09:03:51;;;;;;;2.92;1.00;;;31.30;57.90;;;;;;5058940;28;20040;-70
2023/07/08 09:06:32;;;;;;;3.47;0.60;;;30.80;37.40;;;;;;5068829;28;20047;-70
2023/07/08 09:09:03;;;;;;;1.23;0.60;;;30.40;19.50;;;;;;5078565;28;20044;-72
2023/07/08 09:11:50;;;;;;;0.10;0.10;;;30.80;47.10;;;;;;5078650;28;20123;-72
2023/07/08 09:14:25;;;;;;;1.00;0.45;;;31.60;91.30;;;;;;5059051;28;20087;-72
2023/07/08 09:16:56;;;;;;;2.63;0.55;;;31.70;41.90;;;;;;5058880;28;20047;-71
2023/07/08 09:19:32;;;;;;;0.68;0.57;;;31.40;28.50;;;;;;5062452;28;20052;-72
2023/07/08 09:22:06;;;;;;;0.10;0.10;;;31.80;73.60;;;;;;5067762;28;20048;-72
2023/07/08 09:25:04;;;;;;;0.47;0.43;;;31.60;42.30;;;;;;5079111;28;20040;-72
2023/07/08 09:27:30;;;;;;;0.30;0.20;;;32.30;51.40;;;;;;5060019;28;20132;-71
2023/07/08 09:29:56;;;;;;;1.85;0.75;;;32.40;24.50;;;;;;5060713;28;20139;-71
2023/07/08 09:32:24;;;;;;;0.77;0.47;;;33.00;71.40;;;;;;5064913;28;20052;-72
2023/07/08 09:35:03;;;;;;;2.70;0.95;;;32.80;5.70;;;;;;5082626;28;20047;-71
2023/07/08 09:37:28;;;;;;;0.30;0.30;;;31.80;1.00;;;;;;5083717;28;20043;-71
2023/07/08 09:39:55;;;;;;;3.75;0.77;;;32.30;13.30;;;;;;5084477;28;20468;-72
2023/07/08 09:42:25;;;;;;;0.20;0.20;;;32.30;13.20;;;;;;5084666;28;20140;-72
2023/07/08 09:44:56;;;;;;;0.17;0.15;;;33.20;11.30;;;;;;5064924;28;20040;-71
2023/07/08 09:47:33;;;;;;;0.43;0.30;;;33.40;25.10;;;;;;5066561;28;20052;-71
2023/07/08 09:49:59;;;;;;;0.10;0.10;;;33.40;30.70;;;;;;5085108;28;20403;-72
2023/07/08 09:52:26;;;;;;;1.73;0.35;;;33.90;62.30;;;;;;5084745;28;20044;-72
2023/07/08 09:54:52;;;;;;;0.52;0.43;;;34.70;77.80;;;;;;5084527;28;20048;-72
2023/07/08 09:57:28;;;;;;;0.47;0.38;;;34.80;38.10;;;;;;5084718;28;20368;-72
2023/07/08 10:00:06;;;;;;;0.55;0.38;;;34.90;19.50;;;;;;5084426;28;20032;-70
2023/07/08 10:02:52;;;;;;;0.35;0.25;;;34.80;15.30;;;;;;5084092;28;20040;-70
2023/07/08 10:05:33;;;;;;;1.45;0.60;;;34.00;1.00;;;;;;5084483;28;20071;-70
2023/07/08 10:08:00;;;;;;;0.35;0.32;;;33.30;1.00;;;;;;5083352;28;20051;-71
2023/07/08 10:10:32;;;;;;;0.17;0.17;;;33.50;1.00;;;;;;5083422;28;20070;-70
2023/07/08 10:13:11;;;;;;;0.30;0.22;;;33.00;1.00;;;;;;5082847;28;20070;-70
2023/07/08 10:15:41;;;;;;;1.92;0.70;;;32.70;1.00;;;;;;5081504;28;20079;-70
2023/07/08 10:18:22;;;;;;;0.47;0.47;;;32.00;1.00;;;;;;5082933;28;20051;-69
2023/07/08 10:20:56;;;;;;;0.20;0.20;;;32.00;1.00;;;;;;5082426;28;20074;-70
2023/07/08 10:23:48;;;;;;;1.08;0.70;;;31.70;1.00;;;;;;5082141;28;20051;-69
2023/07/08 10:26:26;;;;;;;0.05;0.05;;;31.50;1.00;;;;;;5075857;28;20179;-70
2023/07/08 10:29:04;;;;;;;1.38;0.65;;;31.90;1.00;;;;;;5083070;28;20043;-70
2023/07/08 10:31:46;;;;;;;0.47;0.47;;;32.00;1.00;;;;;;5084392;28;20047;-69
2023/07/08 10:34:39;;;;;;;0.30;0.25;;;31.70;1.00;;;;;;5083744;28;20052;-70
2023/07/08 10:37:11;;;;;;;1.60;0.30;;;31.60;1.00;;;;;;5084224;28;20058;-72
2023/07/08 10:39:57;;;;;;;0.08;0.08;;;31.40;1.00;;;;;;5084244;28;20430;-72
2023/07/08 10:42:39;;;;;;;0.32;0.30;;;31.40;1.00;;;;;;5083903;28;20386;-72
2023/07/08 10:45:16;;;;;;;0.35;0.25;;;31.80;1.00;;;;;;5080097;28;20052;-72
2023/07/08 10:48:10;;;;;;;0.45;0.22;;;31.90;1.00;;;;;;5075813;28;20079;-70
2023/07/08 10:50:56;;;;;;;0.00;0.00;;;31.80;1.00;;;;;;5083483;28;20040;-69
2023/07/08 10:53:47;;;;;;;6.72;0.88;;;31.80;1.00;;;;;;5083375;28;20044;-70
2023/07/08 10:56:20;;;;;;;0.52;0.28;;;31.90;1.00;;;;;;5081864;28;20059;-70
2023/07/08 10:59:18;;;;;;;13.65;0.85;;;32.10;1.00;;;;;;5083034;28;20617;-69
2023/07/08 11:02:18;;;;;;;0.52;0.47;;;31.80;1.00;;;;;;5081840;28;20055;-70
2023/07/08 11:05:16;;;;;;;0.77;0.30;;;32.10;1.00;;;;;;5083458;28;20117;-69
2023/07/08 11:08:09;;;;;;;0.45;0.40;;;31.90;1.00;;;;;;5083001;28;20406;-70
2023/07/08 11:10:42;;;;;;;1.17;0.45;;;32.10;1.00;;;;;;5083199;28;20108;-70
2023/07/08 11:13:14;;;;;;;0.13;0.13;;;32.50;1.00;;;;;;5082675;28;20044;-70
2023/07/08 11:15:46;;;;;;;0.55;0.30;;;32.90;1.00;;;;;;5083107;28;20054;-70
2023/07/08 11:18:24;;;;;;;0.10;0.10;;;33.10;1.00;;;;;;5082825;28;20402;-72
2023/07/08 11:21:00;;;;;;;0.10;0.10;;;32.70;1.00;;;;;;5083468;28;20048;-72
2023/07/08 11:23:45;;;;;;;0.55;0.30;;;33.20;1.00;;;;;;5083265;28;20047;-72
2023/07/08 11:26:20;;;;;;;1.65;1.02;;;32.90;1.00;;;;;;5083198;28;20071;-70
2023/07/08 11:28:47;;;;;;;1.98;0.65;;;32.90;1.00;;;;;;5083243;28;20087;-70
2023/07/08 11:31:14;;;;;;;1.90;0.88;;;32.50;1.00;;;;;;5082465;28;20562;-70
2023/07/08 11:33:41;;;;;;;2.10;0.88;;;32.70;1.00;;;;;;5082539;28;20075;-70
2023/07/08 11:36:08;;;;;;;0.10;0.10;;;32.90;1.00;;;;;;5082854;28;20182;-70
2023/07/08 11:38:38;;;;;;;1.05;0.52;;;32.80;1.00;;;;;;5082598;28;20127;-70
2023/07/08 11:41:15;;;;;;;1.10;0.50;;;32.80;1.00;;;;;;5082433;28;20533;-70
2023/07/08 11:43:53;;;;;;;1.25;0.70;;;32.90;1.00;;;;;;5082572;28;20040;-70
2023/07/08 11:46:25;;;;;;;0.55;0.35;;;33.40;1.00;;;;;;5082566;28;20182;-70
2023/07/08 11:48:52;;;;;;;0.85;0.65;;;33.40;1.00;;;;;;5082382;28;20943;-70
2023/07/08 11:51:26;;;;;;;3.70;0.93;;;33.30;1.00;;;;;;5082298;28;20059;-70
2023/07/08 11:54:14;;;;;;;0.32;0.30;;;34.20;1.00;;;;;;5081929;28;20491;-70
2023/07/08 11:57:06;;;;;;;0.65;0.45;;;34.70;1.00;;;;;;5082613;28;20051;-70
2023/07/08 11:59:38;;;;;;;0.40;0.22;;;34.70;1.00;;;;;;5082114;28;20067;-70
2023/07/08 12:02:15;;;;;;;1.35;0.70;;;34.90;1.00;;;;;;5082515;28;20376;-70
2023/07/08 12:04:59;;;;;;;3.15;0.88;;;35.10;1.00;;;;;;5081668;28;20873;-70
2023/07/08 12:07:44;;;;;;;0.10;0.10;;;35.30;1.00;;;;;;5082613;28;20036;-70
2023/07/08 12:10:16;;;;;;;1.08;0.25;;;35.30;1.00;;;;;;5082191;28;20044;-70
2023/07/08 12:12:43;;;;;;;0.32;0.30;;;34.50;99.90;;;;;;5082460;28;20494;-70
2023/07/08 12:15:22;;;;;;;0.43;0.32;;;35.00;99.90;;;;;;5081881;28;20071;-70
2023/07/08 12:17:49;;;;;;;0.65;0.30;;;34.90;99.90;;;;;;5082397;28;20056;-70
2023/07/08 12:20:22;;;;;;;0.03;0.03;;;35.30;1.00;;;;;;5081955;28;20048;-70
2023/07/08 12:22:48;;;;;;;0.28;0.22;;;35.50;1.00;;;;;;5081269;28;20051;-70
2023/07/08 12:25:21;;;;;;;0.00;0.00;;;36.20;1.00;;;;;;5081819;28;20406;-70
2023/07/08 12:27:47;;;;;;;0.30;0.30;;;36.40;1.00;;;;;;5082169;28;20055;-70
2023/07/08 12:30:14;;;;;;;0.85;0.50;;;36.90;99.90;;;;;;5081672;28;20398;-70
2023/07/08 12:32:40;;;;;;;1.08;0.57;;;36.00;99.90;;;;;;5082251;28;20073;-70
2023/07/08 12:35:18;;;;;;;1.40;0.98;;;36.30;99.90;;;;;;5078254;28;20512;-70
2023/07/08 12:37:43;;;;;;;0.40;0.40;;;35.90;99.90;;;;;;5075202;28;20048;-70
2023/07/08 12:40:10;;;;;;;1.60;0.47;;;35.90;99.90;;;;;;5081511;28;20079;-71
2023/07/08 12:42:36;;;;;;;0.30;0.20;;;36.30;99.90;;;;;;5081777;28;20052;-71
2023/07/08 12:45:02;;;;;;;0.75;0.60;;;35.90;99.90;;;;;;5081963;28;20483;-71
2023/07/08 12:47:28;;;;;;;0.20;0.20;;;36.30;99.90;;;;;;5081862;28;20044;-71
2023/07/08 12:49:53;;;;;;;0.47;0.43;;;37.20;99.90;;;;;;5081738;28;20501;-71
2023/07/08 12:52:21;;;;;;;0.90;0.22;;;36.80;99.90;;;;;;5084376;28;20048;-71
2023/07/08 12:54:47;;;;;;;2.00;1.35;;;36.60;99.90;;;;;;5082564;28;20075;-71
2023/07/08 12:57:18;;;;;;;1.30;0.43;;;36.90;99.90;;;;;;5073268;28;20573;-72
2023/07/08 12:59:44;;;;;;;0.30;0.30;;;36.70;99.90;;;;;;5072766;28;20478;-71
2023/07/08 13:02:20;;;;;;;0.10;0.10;;;36.60;99.90;;;;;;5085392;28;20569;-71
2023/07/08 13:04:50;;;;;;;0.65;0.50;;;36.70;99.90;;;;;;5083266;28;20043;-71